createdAt,value
2019-06-10T00:00:37.245Z,49.82
2019-06-10T00:03:11.559Z,49.66
2019-06-10T00:05:44.390Z,49.53
2019-06-10T00:08:17.093Z,49.42
2019-06-10T00:10:51.110Z,49.41
2019-06-10T00:13:25.775Z,49.56
2019-06-10T00:15:59.274Z,49.39
2019-06-10T00:18:41.455Z,49.40
2019-06-10T00:21:08.301Z,49.37
2019-06-10T00:23:41.422Z,49.41
2019-06-10T00:26:14.409Z,49.29
2019-06-10T00:28:47.240Z,49.29
2019-06-10T00:31:21.330Z,49.19
2019-06-10T00:33:54.100Z,49.23
2019-06-10T00:36:26.841Z,49.19
2019-06-10T00:39:03.518Z,49.13
2019-06-10T00:41:36.745Z,49.14
2019-06-10T00:44:12.283Z,49.10
2019-06-10T00:46:43.751Z,49.12
2019-06-10T00:49:16.285Z,48.87
2019-06-10T00:51:50.960Z,48.90
2019-06-10T00:54:23.330Z,48.87
2019-06-10T00:56:56.015Z,48.91
2019-06-10T00:59:31.072Z,48.95
2019-06-10T01:02:03.378Z,49.03
2019-06-10T01:04:37.085Z,49.06
2019-06-10T01:07:11.702Z,49.10
2019-06-10T01:09:44.105Z,48.93
2019-06-10T01:12:16.820Z,48.96
2019-06-10T01:14:51.509Z,49.06
2019-06-10T01:17:23.931Z,49.04
2019-06-10T01:19:56.525Z,49.02
2019-06-10T01:22:31.467Z,49.19
2019-06-10T01:25:03.757Z,49.41
2019-06-10T01:27:36.600Z,49.42
2019-06-10T01:30:17.966Z,49.40
2019-06-10T01:32:44.655Z,49.53
2019-06-10T01:35:17.529Z,49.38
2019-06-10T01:37:51.999Z,49.35
2019-06-10T01:40:24.565Z,49.41
2019-06-10T01:42:57.429Z,49.48
2019-06-10T01:45:31.240Z,49.26
2019-06-10T01:48:04.220Z,49.35
2019-06-10T01:50:36.705Z,49.36
2019-06-10T01:53:11.876Z,49.50
2019-06-10T01:55:43.895Z,49.56
2019-06-10T01:58:20.773Z,49.57
2019-06-10T02:00:54.900Z,49.58
2019-06-10T02:03:28.045Z,49.68
2019-06-10T02:06:01.459Z,49.84
2019-06-10T02:08:34.505Z,49.83
2019-06-10T02:11:07.356Z,49.88
2019-06-10T02:13:40.945Z,50.15
2019-06-10T02:16:15.674Z,50.01
2019-06-10T02:18:59.888Z,50.22
2019-06-10T02:21:24.428Z,50.18
2019-06-10T02:23:56.998Z,50.19
2019-06-10T02:26:30.894Z,50.26
2019-06-10T02:29:03.576Z,50.12
2019-06-10T02:31:38.041Z,50.17
2019-06-10T02:34:13.268Z,50.54
2019-06-10T02:36:45.261Z,50.83
2019-06-10T02:39:25.861Z,51.14
2019-06-10T02:41:54.582Z,51.36
2019-06-10T02:44:33.313Z,51.23
2019-06-10T02:47:03.460Z,51.18
2019-06-10T02:49:55.867Z,51.17
2019-06-10T02:52:28.631Z,51.96
2019-06-10T02:54:54.375Z,51.91
2019-06-10T02:57:32.951Z,51.72
2019-06-10T03:00:06.634Z,52.15
2019-06-10T03:02:37.237Z,52.31
2019-06-10T03:05:14.289Z,52.39
2019-06-10T03:07:45.835Z,52.63
2019-06-10T03:10:21.096Z,53.26
2019-06-10T03:12:53.180Z,52.58
2019-06-10T03:15:26.774Z,53.00
2019-06-10T03:18:02.300Z,53.72
2019-06-10T03:20:34.075Z,53.76
2019-06-10T03:23:07.090Z,53.68
2019-06-10T03:25:42.161Z,53.93
2019-06-10T03:28:15.421Z,53.51
2019-06-10T03:30:53.942Z,53.86
2019-06-10T03:33:27.702Z,53.95
2019-06-10T03:35:57.320Z,53.68
2019-06-10T03:38:32.255Z,54.10
2019-06-10T03:41:04.255Z,53.64
2019-06-10T03:43:36.895Z,54.21
2019-06-10T03:46:09.616Z,53.92
2019-06-10T03:48:43.270Z,54.21
2019-06-10T03:51:17.179Z,54.14
2019-06-10T03:53:50.120Z,54.43
2019-06-10T03:56:25.055Z,54.38
2019-06-10T03:58:57.627Z,55.02
2019-06-10T04:01:33.158Z,54.93
2019-06-10T04:04:05.195Z,55.28
2019-06-10T04:06:37.918Z,55.22
2019-06-10T04:09:12.108Z,54.86
2019-06-10T04:11:45.080Z,55.00
2019-06-10T04:14:18.116Z,55.05
2019-06-10T04:16:52.545Z,55.09
2019-06-10T04:19:26.856Z,55.17
2019-06-10T04:22:02.443Z,54.45
2019-06-10T04:24:34.440Z,54.97
2019-06-10T04:27:07.265Z,54.81
2019-06-10T04:29:42.071Z,54.50
2019-06-10T04:32:14.706Z,54.75
2019-06-10T04:34:47.562Z,54.66
2019-06-10T04:37:22.970Z,54.78
2019-06-10T04:39:57.529Z,54.49
2019-06-10T04:42:29.630Z,54.57
2019-06-10T04:45:03.176Z,54.46
2019-06-10T04:47:36.075Z,54.27
2019-06-10T04:50:24.148Z,54.25
2019-06-10T04:52:44.232Z,54.00
2019-06-10T04:55:17.085Z,53.87
2019-06-10T04:57:52.019Z,53.93
2019-06-10T05:00:27.167Z,53.96
2019-06-10T05:02:59.655Z,54.07
2019-06-10T05:05:33.555Z,54.27
2019-06-10T05:08:06.587Z,53.55
2019-06-10T05:10:39.355Z,52.67
2019-06-10T05:13:12.245Z,52.12
2019-06-10T05:15:45.456Z,52.11
2019-06-10T05:18:19.527Z,52.01
2019-06-10T05:20:58.438Z,52.24
2019-06-10T05:23:27.923Z,52.00
2019-06-10T05:26:02.838Z,52.15
2019-06-10T05:28:35.621Z,52.08
2019-06-10T05:31:08.645Z,52.43
2019-06-10T05:33:42.646Z,52.36
2019-06-10T05:36:15.631Z,52.84
2019-06-10T05:38:48.286Z,52.53
2019-06-10T05:41:24.085Z,52.75
2019-06-10T05:43:55.515Z,53.03
2019-06-10T05:46:28.717Z,52.94
2019-06-10T05:49:03.083Z,53.09
2019-06-10T05:51:35.805Z,53.09
2019-06-10T05:54:08.520Z,53.23
2019-06-10T05:56:43.337Z,53.36
2019-06-10T05:59:15.980Z,53.03
2019-06-10T06:01:49.561Z,52.88
2019-06-10T06:04:23.362Z,53.37
2019-06-10T06:06:57.091Z,53.24
2019-06-10T06:09:32.317Z,52.92
2019-06-10T06:12:04.406Z,52.23
2019-06-10T06:14:38.135Z,52.21
2019-06-10T06:17:12.696Z,51.78
2019-06-10T06:19:45.325Z,51.61
2019-06-10T06:22:21.984Z,51.25
2019-06-10T06:24:53.815Z,51.04
2019-06-10T06:27:26.760Z,51.05
2019-06-10T06:29:59.440Z,50.64
2019-06-10T06:32:33.721Z,50.16
2019-06-10T06:35:07.490Z,49.76
2019-06-10T06:37:42.731Z,49.42
2019-06-10T06:40:15.753Z,49.42
2019-06-10T06:42:48.615Z,49.22
2019-06-10T06:45:22.214Z,48.61
2019-06-10T06:47:55.733Z,49.04
2019-06-10T06:50:28.494Z,49.21
2019-06-10T06:53:20.054Z,48.79
2019-06-10T06:55:37.806Z,47.87
2019-06-10T06:58:12.587Z,48.07
2019-06-10T07:01:00.452Z,47.94
2019-06-10T07:03:20.240Z,47.77
2019-06-10T07:05:54.710Z,47.40
2019-06-10T07:08:30.222Z,46.99
2019-06-10T07:11:04.856Z,47.52
2019-06-10T07:13:39.538Z,47.26
2019-06-10T07:16:13.285Z,47.32
2019-06-10T07:18:50.331Z,47.63
2019-06-10T07:21:22.606Z,47.46
2019-06-10T07:23:54.671Z,47.55
2019-06-10T07:26:27.034Z,47.86
2019-06-10T07:28:59.545Z,47.35
2019-06-10T07:31:34.701Z,47.70
2019-06-10T07:34:06.370Z,47.77
2019-06-10T07:36:38.964Z,47.90
2019-06-10T07:39:13.445Z,47.86
2019-06-10T07:41:47.927Z,48.25
2019-06-10T07:44:22.668Z,48.00
2019-06-10T07:46:55.739Z,47.96
2019-06-10T07:49:32.151Z,47.73
2019-06-10T07:52:15.765Z,47.87
2019-06-10T07:54:39.184Z,48.52
2019-06-10T07:57:12.960Z,48.47
2019-06-10T07:59:46.023Z,49.66
2019-06-10T08:02:19.221Z,49.11
2019-06-10T08:04:54.195Z,49.14
2019-06-10T08:07:26.030Z,48.71
2019-06-10T08:09:58.309Z,48.84
2019-06-10T08:12:32.558Z,49.39
2019-06-10T08:15:06.350Z,49.09
2019-06-10T08:17:40.401Z,48.85
2019-06-10T08:20:13.577Z,48.47
2019-06-10T08:22:54.071Z,48.55
2019-06-10T08:25:22.937Z,48.68
2019-06-10T08:27:55.431Z,49.14
2019-06-10T08:30:28.052Z,48.16
2019-06-10T08:33:03.383Z,47.90
2019-06-10T08:35:43.645Z,48.12
2019-06-10T08:38:09.340Z,47.91
2019-06-10T08:40:44.929Z,48.04
2019-06-10T08:43:16.495Z,48.22
2019-06-10T08:45:49.120Z,47.87
2019-06-10T08:48:22.973Z,47.69
2019-06-10T08:50:56.160Z,47.67
2019-06-10T08:53:28.551Z,47.52
2019-06-10T08:56:02.919Z,48.29
2019-06-10T08:58:34.948Z,47.72
2019-06-10T09:01:08.500Z,46.92
2019-06-10T09:03:44.676Z,47.08
2019-06-10T09:06:14.880Z,46.86
2019-06-10T09:08:50.945Z,46.82
2019-06-10T09:11:23.771Z,46.52
2019-06-10T09:13:56.540Z,46.48
2019-06-10T09:16:29.100Z,46.54
2019-06-10T09:19:02.234Z,46.45
2019-06-10T09:21:35.941Z,46.35
2019-06-10T09:24:08.241Z,45.98
2019-06-10T09:26:44.566Z,45.99
2019-06-10T09:29:14.782Z,46.05
2019-06-10T09:31:51.309Z,46.44
2019-06-10T09:34:23.624Z,45.76
2019-06-10T09:36:56.901Z,46.41
2019-06-10T09:39:29.114Z,45.76
2019-06-10T09:42:06.121Z,44.75
2019-06-10T09:44:35.941Z,44.64
2019-06-10T09:47:08.371Z,44.19
2019-06-10T09:49:45.359Z,43.39
2019-06-10T09:52:16.236Z,42.83
2019-06-10T09:54:55.689Z,43.73
2019-06-10T09:57:23.835Z,42.72
2019-06-10T09:59:56.845Z,42.75
2019-06-10T10:02:29.356Z,41.99
2019-06-10T10:05:02.944Z,42.25
2019-06-10T10:07:38.455Z,42.02
2019-06-10T10:10:12.923Z,42.29
2019-06-10T10:12:47.560Z,40.71
2019-06-10T10:15:27.507Z,40.80
2019-06-10T10:17:56.358Z,40.43
2019-06-10T10:20:28.895Z,40.56
2019-06-10T10:23:02.665Z,40.49
2019-06-10T10:25:35.549Z,39.49
2019-06-10T10:28:07.946Z,40.06
2019-06-10T10:30:42.506Z,39.25
2019-06-10T10:33:14.640Z,40.05
2019-06-10T10:35:48.001Z,40.36
2019-06-10T10:38:22.911Z,39.56
2019-06-10T10:40:58.516Z,39.96
2019-06-10T10:43:34.066Z,40.06
2019-06-10T10:46:05.493Z,38.93
2019-06-10T10:48:38.660Z,39.96
2019-06-10T10:51:13.003Z,40.29
2019-06-10T10:53:50.505Z,39.95
2019-06-10T10:56:22.180Z,40.44
2019-06-10T10:58:57.797Z,40.53
2019-06-10T11:01:28.954Z,40.53
2019-06-10T11:04:03.050Z,40.87
2019-06-10T11:06:36.725Z,40.69
2019-06-10T11:09:12.994Z,41.04
2019-06-10T11:11:46.046Z,41.22
2019-06-10T11:14:22.870Z,41.12
2019-06-10T11:16:57.098Z,42.54
2019-06-10T11:19:28.905Z,40.52
2019-06-10T11:22:02.847Z,40.80
2019-06-10T11:24:40.758Z,41.05
2019-06-10T11:27:12.153Z,40.63
2019-06-10T11:29:44.261Z,41.09
2019-06-10T11:32:16.989Z,40.57
2019-06-10T11:34:49.838Z,38.95
2019-06-10T11:37:23.125Z,37.88
2019-06-10T11:39:56.530Z,38.06
2019-06-10T11:42:33.277Z,36.77
2019-06-10T11:45:07.290Z,36.15
2019-06-10T11:47:42.462Z,36.63
2019-06-10T11:50:15.093Z,37.15
2019-06-10T11:52:47.610Z,36.60
2019-06-10T11:55:21.403Z,36.53
2019-06-10T11:57:57.600Z,35.73
2019-06-10T12:00:33.142Z,35.04
2019-06-10T12:03:05.408Z,35.55
2019-06-10T12:05:38.176Z,34.70
2019-06-10T12:08:13.042Z,35.06
2019-06-10T12:10:44.988Z,34.93
2019-06-10T12:13:17.464Z,34.25
2019-06-10T12:16:48.283Z,31.27
2019-06-10T12:18:24.080Z,32.14
2019-06-10T12:21:02.868Z,30.98
2019-06-10T12:23:33.623Z,31.35
2019-06-10T12:26:05.893Z,30.70
2019-06-10T12:28:38.572Z,31.77
2019-06-10T12:31:13.380Z,32.40
2019-06-10T12:33:45.526Z,32.22
2019-06-10T12:36:18.897Z,32.30
2019-06-10T12:38:55.357Z,32.38
2019-06-10T12:41:26.140Z,31.64
2019-06-10T12:43:58.695Z,30.97
2019-06-10T12:46:32.783Z,31.13
2019-06-10T12:49:08.456Z,31.13
2019-06-10T12:51:40.005Z,31.69
2019-06-10T12:54:13.181Z,32.52
2019-06-10T12:56:46.230Z,30.61
2019-06-10T12:59:18.802Z,32.11
2019-06-10T13:01:53.162Z,32.27
2019-06-10T13:04:27.050Z,31.34
2019-06-10T13:07:05.173Z,30.79
2019-06-10T13:09:38.346Z,31.19
2019-06-10T13:12:12.956Z,31.00
2019-06-10T13:14:45.111Z,31.10
2019-06-10T13:17:18.010Z,31.12
2019-06-10T13:19:50.815Z,31.38
2019-06-10T13:22:23.570Z,31.29
2019-06-10T13:24:56.475Z,31.80
2019-06-10T13:27:29.454Z,33.38
2019-06-10T13:30:02.711Z,32.19
2019-06-10T13:32:35.895Z,32.31
2019-06-10T13:35:08.338Z,32.69
2019-06-10T13:37:42.846Z,32.39
2019-06-10T13:40:16.210Z,32.33
2019-06-10T13:42:48.900Z,32.27
2019-06-10T13:45:22.430Z,30.44
2019-06-10T13:47:56.155Z,29.68
2019-06-10T13:50:29.094Z,29.18
2019-06-10T13:53:03.772Z,29.76
2019-06-10T13:55:36.140Z,30.48
2019-06-10T13:58:11.465Z,31.16
2019-06-10T14:00:46.730Z,31.64
2019-06-10T14:03:18.775Z,30.68
2019-06-10T14:05:57.889Z,30.87
2019-06-10T14:08:26.766Z,30.86
2019-06-10T14:11:03.349Z,31.61
2019-06-10T14:13:33.880Z,31.21
2019-06-10T14:16:07.721Z,31.76
2019-06-10T14:18:42.390Z,31.57
2019-06-10T14:21:18.455Z,31.06
2019-06-10T14:23:49.461Z,30.74
2019-06-10T14:26:37.172Z,30.20
2019-06-10T14:28:56.576Z,30.55
2019-06-10T14:31:42.835Z,31.53
2019-06-10T14:34:05.714Z,31.59
2019-06-10T14:36:38.065Z,32.22
2019-06-10T14:39:13.162Z,31.65
2019-06-10T14:41:45.275Z,32.06
2019-06-10T14:44:18.144Z,31.71
2019-06-10T14:46:52.968Z,31.32
2019-06-10T14:49:24.825Z,31.72
2019-06-10T14:51:57.362Z,30.68
2019-06-10T14:54:32.223Z,31.46
2019-06-10T14:57:05.226Z,31.69
2019-06-10T14:59:37.913Z,31.92
2019-06-10T15:02:12.888Z,31.89
2019-06-10T15:04:44.939Z,31.98
2019-06-10T15:07:17.925Z,30.86
2019-06-10T15:09:52.603Z,31.55
2019-06-10T15:12:25.025Z,30.98
2019-06-10T15:14:57.715Z,31.57
2019-06-10T15:17:32.546Z,31.35
2019-06-10T15:20:07.426Z,31.16
2019-06-10T15:22:43.005Z,30.84
2019-06-10T15:25:17.067Z,31.61
2019-06-10T15:27:52.047Z,32.15
2019-06-10T15:30:28.091Z,32.49
2019-06-10T15:32:58.845Z,34.29
2019-06-10T15:35:32.789Z,33.03
2019-06-10T15:38:05.386Z,33.50
2019-06-10T15:40:38.000Z,34.21
2019-06-10T15:43:11.694Z,33.88
2019-06-10T15:45:44.635Z,33.91
2019-06-10T15:48:18.822Z,33.92
2019-06-10T15:50:51.770Z,33.99
2019-06-10T15:53:25.783Z,34.33
2019-06-10T15:56:16.888Z,34.99
2019-06-10T15:58:34.265Z,34.97
2019-06-10T16:01:07.010Z,35.02
2019-06-10T16:03:42.230Z,35.19
2019-06-10T16:06:14.385Z,35.52
2019-06-10T16:08:48.485Z,35.52
2019-06-10T16:11:25.467Z,35.43
2019-06-10T16:13:56.765Z,35.86
2019-06-10T16:16:29.518Z,35.55
2019-06-10T16:19:02.292Z,36.47
2019-06-10T16:21:35.460Z,36.55
2019-06-10T16:24:07.952Z,37.14
2019-06-10T16:26:40.645Z,37.24
2019-06-10T16:29:13.336Z,36.92
2019-06-10T16:31:45.960Z,37.29
2019-06-10T16:34:19.694Z,37.60
2019-06-10T16:36:53.314Z,37.17
2019-06-10T16:39:26.899Z,37.56
2019-06-10T16:42:00.174Z,37.73
2019-06-10T16:44:33.097Z,37.91
2019-06-10T16:47:05.640Z,38.15
2019-06-10T16:49:38.229Z,38.49
2019-06-10T16:52:12.150Z,38.52
2019-06-10T16:54:44.904Z,38.47
2019-06-10T16:57:17.730Z,38.59
2019-06-10T16:59:52.060Z,38.35
2019-06-10T17:02:25.451Z,38.94
2019-06-10T17:04:59.220Z,39.13
2019-06-10T17:07:32.965Z,39.26
2019-06-10T17:10:07.755Z,40.01
2019-06-10T17:12:42.519Z,39.93
2019-06-10T17:15:14.990Z,39.88
2019-06-10T17:17:47.774Z,40.21
2019-06-10T17:20:21.184Z,40.59
2019-06-10T17:22:55.189Z,40.36
2019-06-10T17:25:28.137Z,40.68
2019-06-10T17:28:15.110Z,40.99
2019-06-10T17:30:35.374Z,41.34
2019-06-10T17:33:08.270Z,41.37
2019-06-10T17:35:43.130Z,41.41
2019-06-10T17:38:15.558Z,41.78
2019-06-10T17:40:48.584Z,41.73
2019-06-10T17:43:23.161Z,41.83
2019-06-10T17:45:56.209Z,42.39
2019-06-10T17:48:29.264Z,42.46
2019-06-10T17:51:02.468Z,42.20
2019-06-10T17:53:35.351Z,42.30
2019-06-10T17:56:07.941Z,42.65
2019-06-10T17:58:53.441Z,43.11
2019-06-10T18:01:14.650Z,43.25
2019-06-10T18:03:47.265Z,43.70
2019-06-10T18:06:22.461Z,43.53
2019-06-10T18:08:54.496Z,43.97
2019-06-10T18:11:28.053Z,44.38
2019-06-10T18:14:02.678Z,44.30
2019-06-10T18:16:36.703Z,44.58
2019-06-10T18:19:09.406Z,44.79
2019-06-10T18:21:42.070Z,44.91
2019-06-10T18:24:15.676Z,45.21
2019-06-10T18:26:48.302Z,45.53
2019-06-10T18:29:23.057Z,45.70
2019-06-10T18:31:55.276Z,46.23
2019-06-10T18:34:27.794Z,46.20
2019-06-10T18:37:02.684Z,46.22
2019-06-10T18:39:35.631Z,46.59
2019-06-10T18:42:08.206Z,46.88
2019-06-10T18:44:40.871Z,46.90
2019-06-10T18:47:13.505Z,47.25
2019-06-10T18:49:46.216Z,47.34
2019-06-10T18:52:18.651Z,47.60
2019-06-10T18:54:52.886Z,47.84
2019-06-10T18:57:25.635Z,47.62
2019-06-10T18:59:58.175Z,48.47
2019-06-10T19:02:32.326Z,48.68
2019-06-10T19:05:08.031Z,48.94
2019-06-10T19:07:42.882Z,49.20
2019-06-10T19:10:18.420Z,49.60
2019-06-10T19:12:53.103Z,50.11
2019-06-10T19:15:25.594Z,50.17
2019-06-10T19:17:58.447Z,50.78
2019-06-10T19:20:36.365Z,51.00
2019-06-10T19:23:07.150Z,51.40
2019-06-10T19:25:41.892Z,51.68
2019-06-10T19:28:14.331Z,51.53
2019-06-10T19:30:47.021Z,51.81
2019-06-10T19:33:19.931Z,52.43
2019-06-10T19:35:53.307Z,52.69
2019-06-10T19:38:26.272Z,52.91
2019-06-10T19:40:59.096Z,53.39
2019-06-10T19:43:34.621Z,53.62
2019-06-10T19:46:07.723Z,54.08
2019-06-10T19:48:44.573Z,54.80
2019-06-10T19:51:15.426Z,55.33
2019-06-10T19:53:47.980Z,55.95
2019-06-10T19:56:24.184Z,55.86
2019-06-10T19:58:55.459Z,56.53
2019-06-10T20:01:28.298Z,56.70
2019-06-10T20:04:02.629Z,57.05
2019-06-10T20:06:35.790Z,57.35
2019-06-10T20:09:13.044Z,57.88
2019-06-10T20:11:47.265Z,58.58
2019-06-10T20:14:19.815Z,58.84
2019-06-10T20:16:52.877Z,59.10
2019-06-10T20:19:25.625Z,59.45
2019-06-10T20:21:58.109Z,59.95
2019-06-10T20:24:30.485Z,60.39
2019-06-10T20:27:03.396Z,60.72
2019-06-10T20:29:36.015Z,61.01
2019-06-10T20:32:08.871Z,61.08
2019-06-10T20:34:41.515Z,61.67
2019-06-10T20:37:14.244Z,61.82
2019-06-10T20:39:47.795Z,61.34
2019-06-10T20:42:22.965Z,61.34
2019-06-10T20:44:55.228Z,61.90
2019-06-10T20:47:29.195Z,62.88
2019-06-10T20:50:03.067Z,61.43
2019-06-10T20:52:36.265Z,57.12
2019-06-10T20:55:12.719Z,54.73
2019-06-10T20:57:56.257Z,54.75
2019-06-10T21:00:33.629Z,55.51
2019-06-10T21:03:07.575Z,56.28
2019-06-10T21:05:41.610Z,57.05
2019-06-10T21:08:14.285Z,57.34
2019-06-10T21:10:49.449Z,58.19
2019-06-10T21:13:22.651Z,59.01
2019-06-10T21:15:59.115Z,59.37
2019-06-10T21:18:29.886Z,60.00
2019-06-10T21:21:02.886Z,60.23
2019-06-10T21:23:35.530Z,61.27
2019-06-10T21:26:08.400Z,61.86
2019-06-10T21:28:43.646Z,62.51
2019-06-10T21:31:15.875Z,61.75
2019-06-10T21:33:49.534Z,57.35
2019-06-10T21:36:23.160Z,54.83
2019-06-10T21:38:56.127Z,55.22
2019-06-10T21:41:28.805Z,55.91
2019-06-10T21:44:03.190Z,56.28
2019-06-10T21:46:36.009Z,57.33
2019-06-10T21:49:09.595Z,58.44
2019-06-10T21:51:45.311Z,59.12
2019-06-10T21:54:17.851Z,59.75
2019-06-10T21:56:54.014Z,60.32
2019-06-10T21:59:24.835Z,61.06
2019-06-10T22:01:57.776Z,61.72
2019-06-10T22:04:32.517Z,62.37
2019-06-10T22:07:04.930Z,61.66
2019-06-10T22:09:37.662Z,57.97
2019-06-10T22:12:11.979Z,56.06
2019-06-10T22:14:46.077Z,56.41
2019-06-10T22:17:18.876Z,57.18
2019-06-10T22:19:53.603Z,58.02
2019-06-10T22:22:26.176Z,59.08
2019-06-10T22:24:58.692Z,59.63
2019-06-10T22:27:32.681Z,60.30
2019-06-10T22:30:11.399Z,61.13
2019-06-10T22:32:42.949Z,61.79
2019-06-10T22:35:15.780Z,62.37
2019-06-10T22:37:49.646Z,63.11
2019-06-10T22:40:22.551Z,62.37
2019-06-10T22:42:56.792Z,58.25
2019-06-10T22:45:29.451Z,56.17
2019-06-10T22:48:03.071Z,56.58
2019-06-10T22:50:36.027Z,57.46
2019-06-10T22:53:09.006Z,58.43
2019-06-10T22:55:43.279Z,59.01
2019-06-10T22:58:16.067Z,59.87
2019-06-10T23:00:49.987Z,60.52
2019-06-10T23:03:23.626Z,61.51
2019-06-10T23:05:58.520Z,62.17
2019-06-10T23:08:33.408Z,62.92
2019-06-10T23:11:06.262Z,62.10
2019-06-10T23:13:38.907Z,58.06
2019-06-10T23:16:13.010Z,55.75
2019-06-10T23:18:45.846Z,56.23
2019-06-10T23:21:18.486Z,57.12
2019-06-10T23:23:53.810Z,58.16
2019-06-10T23:26:25.667Z,58.57
2019-06-10T23:28:58.836Z,59.72
2019-06-10T23:31:33.679Z,60.39
2019-06-10T23:34:06.602Z,61.12
2019-06-10T23:36:39.210Z,61.85
2019-06-10T23:39:13.199Z,62.59
2019-06-10T23:41:45.950Z,61.90
2019-06-10T23:44:18.825Z,57.83
2019-06-10T23:46:51.658Z,55.32
2019-06-10T23:49:24.277Z,55.62
2019-06-10T23:51:57.593Z,56.29
2019-06-10T23:54:32.272Z,57.62
2019-06-10T23:57:06.150Z,58.21
2019-06-10T23:59:42.624Z,59.76
